Time;durP1;ratioP1;P1;durP2;ratioP2;P2;SDS_P1;SDS_P2;PMS_P1;PMS_P2;Temp;Humidity;BMP_temperature;BMP_pressure;BME280_temperature;BME280_humidity;BME280_pressure;Samples;Min_cycle;Max_cycle;Signal;HPM_P1;HPM_P2
2021/09/22 00:00:00;;;;;;;3.47;1.27;;;12.10;81.60;;;;;;4810673;29;20518;-76
2021/09/22 00:02:38;;;;;;;2.88;1.20;;;12.00;81.60;;;;;;4847368;29;20045;-76
2021/09/22 00:05:05;;;;;;;2.17;0.77;;;12.00;81.70;;;;;;4814228;29;20124;-76
2021/09/22 00:07:33;;;;;;;3.05;1.38;;;12.00;81.80;;;;;;4863289;29;20091;-76
2021/09/22 00:10:00;;;;;;;4.43;1.58;;;12.00;81.90;;;;;;4867394;29;20045;-76
2021/09/22 00:12:27;;;;;;;2.47;1.10;;;12.00;81.90;;;;;;4822739;29;20495;-76
2021/09/22 00:14:54;;;;;;;2.97;1.33;;;11.90;81.90;;;;;;4867579;29;20041;-76
2021/09/22 00:17:21;;;;;;;3.10;1.45;;;11.90;81.90;;;;;;4867326;29;20081;-76
2021/09/22 00:19:48;;;;;;;3.40;1.50;;;11.90;82.00;;;;;;4868342;29;20076;-75
2021/09/22 00:22:15;;;;;;;2.85;1.25;;;11.90;82.10;;;;;;4864581;29;20053;-76
2021/09/22 00:24:43;;;;;;;3.40;1.17;;;11.90;82.10;;;;;;4866390;29;20045;-76
2021/09/22 00:27:10;;;;;;;3.15;1.50;;;11.90;82.20;;;;;;4843165;29;20132;-76
2021/09/22 00:29:37;;;;;;;2.45;1.05;;;11.90;82.20;;;;;;4861374;29;20152;-76
2021/09/22 00:32:05;;;;;;;2.80;1.48;;;11.80;82.20;;;;;;4848749;29;20402;-76
2021/09/22 00:34:32;;;;;;;2.45;1.02;;;11.80;82.20;;;;;;4824404;29;20124;-76
2021/09/22 00:37:00;;;;;;;4.15;1.55;;;11.80;82.20;;;;;;4837404;29;20069;-76
2021/09/22 00:39:27;;;;;;;3.60;1.60;;;11.80;82.90;;;;;;4866471;29;20081;-76
2021/09/22 00:41:55;;;;;;;2.53;1.23;;;11.80;82.40;;;;;;4845912;29;20472;-76
2021/09/22 00:44:22;;;;;;;3.97;1.50;;;11.70;82.30;;;;;;4861142;29;20065;-76
2021/09/22 00:46:49;;;;;;;3.88;1.45;;;11.80;82.50;;;;;;4826631;29;20046;-76
2021/09/22 00:49:16;;;;;;;3.60;1.45;;;11.70;82.50;;;;;;4832223;29;20050;-76
2021/09/22 00:51:47;;;;;;;2.20;1.00;;;11.70;82.50;;;;;;4860762;29;20110;-76
2021/09/22 00:54:15;;;;;;;3.20;1.42;;;11.70;82.50;;;;;;4852191;29;20102;-76
2021/09/22 00:56:42;;;;;;;2.58;1.33;;;11.70;82.60;;;;;;4850788;29;20062;-76
2021/09/22 00:59:10;;;;;;;3.30;1.10;;;11.60;82.60;;;;;;4852866;29;20075;-77
2021/09/22 01:01:37;;;;;;;2.85;0.98;;;11.60;82.70;;;;;;4864330;29;20073;-76
2021/09/22 01:04:04;;;;;;;2.83;1.23;;;11.60;82.70;;;;;;4866611;29;20048;-76
2021/09/22 01:06:31;;;;;;;2.78;1.15;;;11.60;82.80;;;;;;4861669;29;20093;-76
2021/09/22 01:09:00;;;;;;;2.90;1.50;;;11.60;82.80;;;;;;4859114;29;20086;-76
2021/09/22 01:11:28;;;;;;;3.45;1.20;;;11.60;82.90;;;;;;4852629;29;20098;-76
2021/09/22 01:13:55;;;;;;;3.85;1.75;;;11.50;82.90;;;;;;4808759;29;20463;-76
2021/09/22 01:16:22;;;;;;;3.65;1.75;;;11.50;82.90;;;;;;4853806;29;20494;-77
2021/09/22 01:18:52;;;;;;;3.00;1.50;;;11.50;83.00;;;;;;4854584;29;20030;-77
2021/09/22 01:21:20;;;;;;;3.38;1.20;;;11.50;83.60;;;;;;4853242;29;20174;-76
2021/09/22 01:23:52;;;;;;;3.17;1.23;;;11.40;83.00;;;;;;4824393;29;20061;-77
2021/09/22 01:26:19;;;;;;;2.92;1.38;;;11.50;83.10;;;;;;4855886;29;20081;-77
2021/09/22 01:28:46;;;;;;;3.30;1.40;;;11.40;83.10;;;;;;4837909;29;20044;-77
2021/09/22 01:31:16;;;;;;;3.70;1.02;;;11.40;83.00;;;;;;4839156;29;20056;-77
2021/09/22 01:33:46;;;;;;;2.22;1.08;;;11.40;83.10;;;;;;4853160;29;20052;-77
2021/09/22 01:36:20;;;;;;;2.38;1.00;;;11.40;83.10;;;;;;4856868;29;20072;-77
2021/09/22 01:38:54;;;;;;;4.68;1.35;;;11.40;83.10;;;;;;4850510;29;20051;-77
2021/09/22 01:41:21;;;;;;;3.80;1.30;;;11.40;83.20;;;;;;4859273;29;20110;-76
2021/09/22 01:43:57;;;;;;;2.97;1.33;;;11.40;83.20;;;;;;4859637;29;20049;-77
2021/09/22 01:46:45;;;;;;;3.88;1.45;;;11.40;83.30;;;;;;4864283;29;20063;-77
2021/09/22 01:49:24;;;;;;;2.80;1.35;;;11.30;83.30;;;;;;4856145;29;20498;-77
2021/09/22 01:52:03;;;;;;;3.22;1.55;;;11.30;83.40;;;;;;4860322;29;20049;-76
2021/09/22 01:54:38;;;;;;;2.80;1.13;;;11.30;83.50;;;;;;4854669;29;20060;-77
2021/09/22 01:57:05;;;;;;;2.90;1.25;;;11.30;83.60;;;;;;4826931;29;20502;-77
2021/09/22 01:59:32;;;;;;;3.50;1.45;;;11.20;83.50;;;;;;4846680;29;20080;-77
2021/09/22 02:02:19;;;;;;;3.63;1.55;;;11.20;83.60;;;;;;4844628;29;20083;-77
2021/09/22 02:05:25;;;;;;;3.08;1.52;;;11.20;83.60;;;;;;4843179;29;20057;-77
2021/09/22 02:08:15;;;;;;;3.95;1.65;;;11.20;83.70;;;;;;4837622;29;20411;-77
2021/09/22 02:10:42;;;;;;;4.28;1.23;;;11.20;83.80;;;;;;4853590;29;20057;-77
2021/09/22 02:13:13;;;;;;;3.53;1.67;;;11.10;83.70;;;;;;4864482;29;20392;-76
2021/09/22 02:15:42;;;;;;;2.55;1.35;;;11.10;83.70;;;;;;4855289;29;20719;-77
2021/09/22 02:18:38;;;;;;;2.78;1.17;;;11.10;83.70;;;;;;4787453;29;20079;-76
2021/09/22 02:21:09;;;;;;;3.00;1.48;;;11.10;83.80;;;;;;4848389;29;20060;-77
2021/09/22 02:23:38;;;;;;;3.10;1.55;;;11.10;83.80;;;;;;4839340;29;20195;-77
2021/09/22 02:26:07;;;;;;;3.25;1.35;;;11.10;83.80;;;;;;4838607;29;20045;-77
2021/09/22 02:28:38;;;;;;;4.10;2.00;;;11.10;84.50;;;;;;4844203;29;20073;-77
2021/09/22 02:31:05;;;;;;;3.97;1.95;;;11.00;83.90;;;;;;4863436;29;20045;-77
2021/09/22 02:33:47;;;;;;;4.63;1.70;;;11.00;83.90;;;;;;4834042;29;20057;-76
2021/09/22 02:36:16;;;;;;;3.55;1.77;;;11.00;83.90;;;;;;4844375;29;20061;-77
2021/09/22 02:38:54;;;;;;;3.30;1.50;;;11.10;84.00;;;;;;4857347;29;20038;-76
2021/09/22 02:41:24;;;;;;;3.03;1.40;;;11.00;84.00;;;;;;4840780;29;20082;-77
2021/09/22 02:43:51;;;;;;;2.90;1.20;;;11.00;83.90;;;;;;4851142;29;20149;-77
2021/09/22 02:46:22;;;;;;;3.75;1.73;;;11.00;84.00;;;;;;4846496;29;20045;-76
2021/09/22 02:49:01;;;;;;;2.80;1.40;;;11.00;84.00;;;;;;4836610;29;20387;-76
2021/09/22 02:51:30;;;;;;;2.63;1.45;;;11.00;84.00;;;;;;4850420;29;20059;-76
2021/09/22 02:53:57;;;;;;;4.28;1.60;;;11.00;84.00;;;;;;4850040;29;20506;-76
2021/09/22 02:56:26;;;;;;;4.15;2.00;;;11.00;84.10;;;;;;4853108;29;20132;-76
2021/09/22 02:58:53;;;;;;;2.95;1.30;;;11.00;84.10;;;;;;4837030;29;20041;-77
2021/09/22 03:01:20;;;;;;;3.70;1.80;;;11.00;84.10;;;;;;4820518;29;20145;-77
2021/09/22 03:03:48;;;;;;;4.07;2.05;;;11.00;84.10;;;;;;4846401;29;20102;-77
2021/09/22 03:06:15;;;;;;;5.20;2.60;;;11.00;84.20;;;;;;4863034;29;20540;-77
2021/09/22 03:08:43;;;;;;;4.88;1.90;;;11.00;84.20;;;;;;4846347;29;20049;-76
2021/09/22 03:11:10;;;;;;;4.13;2.10;;;11.00;84.20;;;;;;4839771;29;20154;-77
2021/09/22 03:13:38;;;;;;;4.47;2.28;;;11.00;84.30;;;;;;4866306;29;20061;-77
2021/09/22 03:16:07;;;;;;;3.88;2.03;;;11.00;84.40;;;;;;4842512;29;20080;-77
2021/09/22 03:18:36;;;;;;;3.90;1.70;;;11.00;84.40;;;;;;4835475;29;20038;-77
2021/09/22 03:21:03;;;;;;;4.03;1.80;;;11.00;84.40;;;;;;4863326;29;20672;-77
2021/09/22 03:23:31;;;;;;;4.53;2.13;;;11.00;84.40;;;;;;4841775;29;20049;-77
2021/09/22 03:25:58;;;;;;;3.63;1.70;;;11.00;84.50;;;;;;4852140;29;20051;-76
2021/09/22 03:28:26;;;;;;;4.85;1.73;;;11.00;84.50;;;;;;4862472;29;20073;-77
2021/09/22 03:30:55;;;;;;;4.13;1.77;;;11.00;84.50;;;;;;4860752;29;20522;-77
2021/09/22 03:33:23;;;;;;;4.32;2.35;;;11.00;84.60;;;;;;4838042;29;20048;-76
2021/09/22 03:35:50;;;;;;;4.43;2.28;;;11.00;84.60;;;;;;4866094;29;20061;-77
2021/09/22 03:38:18;;;;;;;4.03;1.70;;;11.00;84.60;;;;;;4840129;29;20091;-77
2021/09/22 03:40:53;;;;;;;3.95;2.05;;;11.00;84.70;;;;;;4844761;29;20056;-76
2021/09/22 03:43:20;;;;;;;3.72;1.58;;;11.00;84.70;;;;;;4848853;29;20077;-77
2021/09/22 03:45:47;;;;;;;4.70;2.60;;;11.00;84.80;;;;;;4854514;29;20085;-77
2021/09/22 03:48:15;;;;;;;4.18;2.25;;;11.00;84.80;;;;;;4861938;29;20049;-77
2021/09/22 03:50:42;;;;;;;4.40;2.05;;;11.00;84.80;;;;;;4836027;29;20045;-76
2021/09/22 03:53:15;;;;;;;5.18;2.38;;;11.00;84.90;;;;;;4835051;29;20070;-77
2021/09/22 03:55:45;;;;;;;5.80;2.57;;;10.90;84.80;;;;;;4836884;29;20056;-76
2021/09/22 03:58:15;;;;;;;5.22;2.25;;;10.90;84.90;;;;;;4833540;29;20049;-76
2021/09/22 04:00:43;;;;;;;4.72;2.15;;;10.90;84.90;;;;;;4851964;29;20435;-77
2021/09/22 04:03:10;;;;;;;5.30;2.20;;;10.90;84.90;;;;;;4855302;29;20059;-76
2021/09/22 04:05:38;;;;;;;4.93;2.05;;;11.00;85.00;;;;;;4834118;29;20115;-76
2021/09/22 04:08:07;;;;;;;5.13;2.65;;;10.90;85.50;;;;;;4839228;29;20451;-77
2021/09/22 04:10:38;;;;;;;4.03;2.22;;;10.90;85.00;;;;;;4855873;29;20513;-76
2021/09/22 04:13:05;;;;;;;4.07;2.10;;;10.90;85.00;;;;;;4858696;29;20046;-76
2021/09/22 04:15:39;;;;;;;4.30;2.28;;;10.90;85.00;;;;;;4843579;29;20050;-77
2021/09/22 04:18:07;;;;;;;3.72;1.88;;;10.90;85.10;;;;;;4852687;29;20045;-77
2021/09/22 04:20:35;;;;;;;5.78;2.72;;;10.90;85.70;;;;;;4862914;29;20069;-77
2021/09/22 04:23:02;;;;;;;6.07;2.80;;;10.90;85.10;;;;;;4857260;29;20128;-77
2021/09/22 04:25:29;;;;;;;4.15;2.20;;;10.90;85.10;;;;;;4863310;29;20068;-77
2021/09/22 04:28:03;;;;;;;4.15;2.08;;;10.90;85.10;;;;;;4827788;29;20057;-77
2021/09/22 04:30:49;;;;;;;5.35;3.13;;;10.80;85.10;;;;;;4859785;29;20059;-77
2021/09/22 04:33:34;;;;;;;4.03;2.17;;;10.80;85.10;;;;;;4845636;29;20082;-76
2021/09/22 04:36:19;;;;;;;4.50;2.33;;;10.80;85.20;;;;;;4836051;29;20452;-77
2021/09/22 04:39:07;;;;;;;4.10;1.90;;;10.80;85.30;;;;;;4864600;29;20141;-77
2021/09/22 04:41:52;;;;;;;4.05;1.60;;;10.80;85.20;;;;;;4859242;29;20061;-77
2021/09/22 04:44:38;;;;;;;4.80;2.50;;;10.80;85.30;;;;;;4869319;29;20197;-77
2021/09/22 04:47:23;;;;;;;4.22;1.88;;;10.70;85.30;;;;;;4850764;29;21042;-77
2021/09/22 04:50:09;;;;;;;5.47;2.42;;;10.70;85.30;;;;;;4865154;29;20081;-77
2021/09/22 04:52:56;;;;;;;4.97;2.22;;;10.70;85.30;;;;;;4865040;29;20052;-77
2021/09/22 04:55:41;;;;;;;5.75;3.03;;;10.70;85.40;;;;;;4864149;29;20064;-76
2021/09/22 04:58:27;;;;;;;4.95;2.67;;;10.70;85.40;;;;;;4866989;29;20085;-76
2021/09/22 05:01:13;;;;;;;5.68;2.75;;;10.60;85.40;;;;;;4866888;29;20053;-78
2021/09/22 05:03:58;;;;;;;4.95;2.33;;;10.60;85.40;;;;;;4851591;29;20145;-77
2021/09/22 05:07:01;;;;;;;5.32;2.38;;;10.60;85.40;;;;;;4821707;29;20058;-77
2021/09/22 05:09:46;;;;;;;5.32;2.75;;;10.60;85.40;;;;;;4848364;29;20073;-76
2021/09/22 05:12:32;;;;;;;5.18;2.42;;;10.50;85.40;;;;;;4863905;29;20079;-76
2021/09/22 05:15:18;;;;;;;5.38;2.38;;;10.50;85.50;;;;;;4860743;29;20156;-76
2021/09/22 05:18:03;;;;;;;6.88;2.33;;;10.50;85.50;;;;;;4862901;29;20153;-76
2021/09/22 05:20:49;;;;;;;4.25;1.73;;;10.50;85.50;;;;;;4847635;29;20184;-76
2021/09/22 05:23:34;;;;;;;3.83;1.95;;;10.50;85.50;;;;;;4841544;29;20123;-76
2021/09/22 05:26:30;;;;;;;5.00;2.53;;;10.50;85.50;;;;;;4826742;29;20123;-77
2021/09/22 05:29:15;;;;;;;5.28;2.30;;;10.50;85.50;;;;;;4859097;29;20055;-76
2021/09/22 05:32:01;;;;;;;5.57;2.28;;;10.50;85.50;;;;;;4860570;29;20190;-76
2021/09/22 05:34:47;;;;;;;4.57;2.08;;;10.50;85.50;;;;;;4842221;29;20057;-76
2021/09/22 05:37:32;;;;;;;6.00;2.65;;;10.50;85.50;;;;;;4861412;29;20122;-76
2021/09/22 05:40:18;;;;;;;4.25;2.03;;;10.50;85.50;;;;;;4855122;29;20438;-79
2021/09/22 05:43:03;;;;;;;4.60;2.13;;;10.50;85.40;;;;;;4832165;29;20187;-77
2021/09/22 05:45:48;;;;;;;5.03;2.13;;;10.60;85.50;;;;;;4861494;29;20160;-78
2021/09/22 05:48:34;;;;;;;4.45;2.03;;;10.60;85.40;;;;;;4858425;29;20154;-80
2021/09/22 05:51:19;;;;;;;5.32;2.45;;;10.60;85.30;;;;;;4854703;29;20141;-78
2021/09/22 05:54:05;;;;;;;4.75;2.33;;;10.70;85.40;;;;;;4843690;29;20509;-80
2021/09/22 05:56:50;;;;;;;5.78;2.63;;;10.70;85.40;;;;;;4835685;29;20098;-79
2021/09/22 05:59:35;;;;;;;4.63;1.90;;;10.70;85.40;;;;;;4847351;29;20133;-79
2021/09/22 06:02:21;;;;;;;4.05;1.80;;;10.70;85.40;;;;;;4834662;29;20059;-78
2021/09/22 06:05:08;;;;;;;5.28;2.15;;;10.70;85.30;;;;;;4846753;29;20060;-78
2021/09/22 06:08:10;;;;;;;3.63;1.60;;;10.80;85.40;;;;;;4852889;29;20537;-77
2021/09/22 06:11:07;;;;;;;4.35;2.15;;;10.80;85.30;;;;;;4856578;29;20057;-81
2021/09/22 06:13:53;;;;;;;3.78;1.52;;;10.80;85.20;;;;;;4859216;29;20042;-80
2021/09/22 06:16:22;;;;;;;4.68;2.05;;;10.90;85.30;;;;;;4838317;29;20418;-80
2021/09/22 06:18:49;;;;;;;4.85;2.10;;;10.90;85.30;;;;;;4843722;29;20132;-79
2021/09/22 06:21:17;;;;;;;4.55;2.20;;;10.90;85.30;;;;;;4842749;29;20037;-76
2021/09/22 06:23:44;;;;;;;4.07;1.52;;;11.00;85.40;;;;;;4854548;29;20045;-79
2021/09/22 06:26:11;;;;;;;4.32;1.85;;;11.00;85.30;;;;;;4860249;29;20053;-78
2021/09/22 06:28:38;;;;;;;4.50;1.45;;;11.10;85.30;;;;;;4859918;29;20054;-77
2021/09/22 06:31:05;;;;;;;5.15;2.28;;;11.20;85.20;;;;;;4831696;29;20073;-78
2021/09/22 06:33:32;;;;;;;3.60;1.80;;;11.20;85.20;;;;;;4864921;29;20046;-78
2021/09/22 06:36:01;;;;;;;5.32;2.20;;;11.20;85.10;;;;;;4839847;29;20049;-78
2021/09/22 06:38:36;;;;;;;5.95;2.53;;;11.30;85.10;;;;;;4864663;29;20042;-78
2021/09/22 06:41:04;;;;;;;5.10;2.25;;;11.40;85.10;;;;;;4858879;29;20065;-80
2021/09/22 06:43:37;;;;;;;4.70;2.17;;;11.40;85.10;;;;;;4836248;29;20418;-78
2021/09/22 06:46:04;;;;;;;4.75;2.60;;;11.50;85.00;;;;;;4855848;29;20103;-79
2021/09/22 06:48:31;;;;;;;3.47;1.83;;;11.60;85.00;;;;;;4828442;29;20057;-79
2021/09/22 06:50:58;;;;;;;5.78;2.58;;;11.60;84.90;;;;;;4860061;29;20052;-79
2021/09/22 06:53:25;;;;;;;4.45;2.00;;;11.70;84.90;;;;;;4835509;29;20058;-79
2021/09/22 06:55:53;;;;;;;4.60;2.13;;;11.80;84.90;;;;;;4828316;29;20125;-79
2021/09/22 06:58:20;;;;;;;4.72;2.58;;;11.80;84.80;;;;;;4844345;29;20094;-78
2021/09/22 07:00:47;;;;;;;5.22;2.10;;;11.90;84.80;;;;;;4858819;29;20056;-78
2021/09/22 07:03:15;;;;;;;4.78;2.10;;;11.90;84.80;;;;;;4843321;29;20057;-78
2021/09/22 07:05:44;;;;;;;4.60;2.00;;;12.00;84.70;;;;;;4843562;29;20045;-79
2021/09/22 07:08:13;;;;;;;5.47;2.50;;;12.10;84.80;;;;;;4859560;29;20049;-78
2021/09/22 07:10:41;;;;;;;4.47;1.95;;;12.20;84.70;;;;;;4826177;29;20049;-78
2021/09/22 07:13:08;;;;;;;4.82;2.10;;;12.20;84.60;;;;;;4858879;29;20174;-80
2021/09/22 07:15:35;;;;;;;4.85;2.67;;;12.30;84.50;;;;;;4827943;29;20038;-78
2021/09/22 07:18:16;;;;;;;4.78;2.35;;;12.40;84.50;;;;;;4856832;29;20049;-79
2021/09/22 07:20:46;;;;;;;4.28;2.63;;;12.50;84.50;;;;;;4855834;29;20489;-78
2021/09/22 07:23:15;;;;;;;6.72;2.58;;;12.50;84.40;;;;;;4859246;29;20045;-79
2021/09/22 07:25:43;;;;;;;5.10;2.33;;;12.60;84.30;;;;;;4858496;29;20042;-79
2021/09/22 07:28:10;;;;;;;5.68;2.60;;;12.70;84.90;;;;;;4858244;29;20158;-79
2021/09/22 07:30:37;;;;;;;5.50;2.70;;;12.70;84.20;;;;;;4828941;29;20083;-79
2021/09/22 07:33:06;;;;;;;6.53;3.22;;;12.80;84.20;;;;;;4843469;29;20102;-78
2021/09/22 07:35:33;;;;;;;7.47;4.15;;;12.90;84.10;;;;;;4856589;29;20063;-78
2021/09/22 07:38:01;;;;;;;9.52;4.80;;;12.90;84.00;;;;;;4858142;29;20060;-78
2021/09/22 07:40:29;;;;;;;11.05;5.57;;;13.00;83.90;;;;;;4859570;29;20037;-78
2021/09/22 07:42:57;;;;;;;10.05;5.53;;;13.00;83.90;;;;;;4846608;29;20406;-78
2021/09/22 07:45:26;;;;;;;10.88;5.50;;;13.10;83.80;;;;;;4846281;29;20144;-78
2021/09/22 07:47:53;;;;;;;9.40;5.45;;;13.10;83.80;;;;;;4860313;29;20506;-78
2021/09/22 07:50:20;;;;;;;10.60;6.15;;;13.20;83.80;;;;;;4849023;29;20759;-79
2021/09/22 07:52:47;;;;;;;10.18;5.63;;;13.20;84.00;;;;;;4864771;29;20062;-78
2021/09/22 07:55:14;;;;;;;10.73;6.75;;;13.30;83.70;;;;;;4846174;29;20041;-78
2021/09/22 07:57:41;;;;;;;10.80;6.68;;;13.40;83.70;;;;;;4830981;29;20125;-78
2021/09/22 08:00:11;;;;;;;10.18;5.53;;;13.50;83.60;;;;;;4859101;29;20052;-76
2021/09/22 08:02:39;;;;;;;9.52;5.15;;;13.50;83.60;;;;;;4860343;29;20442;-77
2021/09/22 08:05:08;;;;;;;9.65;4.90;;;13.60;83.50;;;;;;4861725;29;20120;-76
2021/09/22 08:07:44;;;;;;;7.72;4.15;;;13.70;83.50;;;;;;4843245;29;20396;-77
2021/09/22 08:10:12;;;;;;;9.48;4.88;;;13.70;83.40;;;;;;4863757;29;20493;-77
2021/09/22 08:12:40;;;;;;;10.43;5.85;;;13.80;83.30;;;;;;4861055;29;20065;-77
2021/09/22 08:15:07;;;;;;;10.25;5.20;;;13.80;83.30;;;;;;4862099;29;20044;-77
2021/09/22 08:17:35;;;;;;;13.15;7.00;;;13.90;83.30;;;;;;4861566;29;20045;-80
2021/09/22 08:20:03;;;;;;;12.23;7.13;;;14.00;83.30;;;;;;4859521;29;20070;-80
2021/09/22 08:22:30;;;;;;;12.65;6.85;;;14.10;83.20;;;;;;4846482;29;20042;-79
2021/09/22 08:24:58;;;;;;;11.95;6.60;;;14.10;83.10;;;;;;4860827;29;20076;-80
2021/09/22 08:27:26;;;;;;;10.52;6.07;;;14.20;83.10;;;;;;4863060;29;20041;-79
2021/09/22 08:29:53;;;;;;;11.85;7.53;;;14.30;83.00;;;;;;4847055;29;20045;-81
2021/09/22 08:32:20;;;;;;;12.68;6.80;;;14.30;82.90;;;;;;4830192;29;20081;-80
2021/09/22 08:34:48;;;;;;;11.90;6.88;;;14.40;83.40;;;;;;4841764;29;20048;-80
2021/09/22 08:37:15;;;;;;;10.63;6.70;;;14.50;82.70;;;;;;4845671;29;20037;-80
2021/09/22 08:39:42;;;;;;;11.65;6.10;;;14.60;82.60;;;;;;4860922;29;20045;-79
2021/09/22 08:42:09;;;;;;;14.80;7.93;;;14.70;82.50;;;;;;4846662;29;20440;-81
2021/09/22 08:44:39;;;;;;;11.15;6.93;;;14.80;82.30;;;;;;4865045;29;20041;-85
2021/09/22 08:47:06;;;;;;;9.68;6.15;;;14.90;82.10;;;;;;4845614;29;20375;-81
2021/09/22 08:49:33;;;;;;;9.02;5.47;;;15.00;82.00;;;;;;4846805;29;20503;-81
2021/09/22 08:52:00;;;;;;;13.00;6.28;;;15.10;81.90;;;;;;4824998;29;20061;-83
2021/09/22 08:54:29;;;;;;;10.65;6.18;;;15.10;81.80;;;;;;4840326;29;20041;-78
2021/09/22 08:57:00;;;;;;;9.07;4.82;;;15.20;81.80;;;;;;4879656;29;20121;-78
2021/09/22 08:59:27;;;;;;;11.40;6.67;;;15.20;81.70;;;;;;4877903;29;20072;-78
2021/09/22 09:02:08;;;;;;;10.70;6.35;;;15.20;81.60;;;;;;4880971;29;20064;-81
2021/09/22 09:04:37;;;;;;;9.75;6.00;;;15.30;81.40;;;;;;4879190;29;20078;-81
2021/09/22 09:07:05;;;;;;;10.63;6.05;;;15.30;81.40;;;;;;4879784;29;20144;-80
2021/09/22 09:09:34;;;;;;;10.00;5.88;;;15.30;81.30;;;;;;4842874;29;20057;-81
2021/09/22 09:12:02;;;;;;;8.02;4.72;;;15.40;81.40;;;;;;4863221;29;20541;-81
2021/09/22 09:14:34;;;;;;;10.65;5.97;;;15.40;81.40;;;;;;4863959;29;20514;-82
2021/09/22 09:17:09;;;;;;;9.27;5.30;;;15.40;81.20;;;;;;4848548;29;20049;-83
2021/09/22 09:19:44;;;;;;;9.05;5.32;;;15.40;81.20;;;;;;4848466;29;20320;-82
2021/09/22 09:22:12;;;;;;;13.48;7.53;;;15.50;81.20;;;;;;4878548;29;20116;-80
2021/09/22 09:24:46;;;;;;;12.65;7.80;;;15.50;81.10;;;;;;4879087;29;20109;-80
2021/09/22 09:27:19;;;;;;;9.73;6.15;;;15.50;80.80;;;;;;4878450;29;20049;-77
2021/09/22 09:29:55;;;;;;;10.85;5.28;;;15.60;80.80;;;;;;4880130;29;20048;-81
2021/09/22 09:32:31;;;;;;;12.55;7.93;;;15.60;80.80;;;;;;4847509;29;20053;-80
2021/09/22 09:35:18;;;;;;;9.52;5.60;;;15.70;80.60;;;;;;4878787;29;20044;-81
2021/09/22 09:37:48;;;;;;;11.70;6.30;;;15.70;80.50;;;;;;4830226;29;20065;-82
2021/09/22 09:40:30;;;;;;;9.90;5.22;;;15.80;80.50;;;;;;4858600;29;20045;-82
2021/09/22 09:43:00;;;;;;;10.10;6.03;;;15.90;80.30;;;;;;4848547;29;20722;-84
2021/09/22 09:45:39;;;;;;;10.98;6.10;;;15.90;80.20;;;;;;4879236;29;20059;-82
2021/09/22 09:48:12;;;;;;;7.93;4.88;;;16.00;80.00;;;;;;4883803;29;20059;-81
2021/09/22 09:50:46;;;;;;;11.48;6.57;;;16.10;79.80;;;;;;4878637;29;20048;-81
2021/09/22 09:53:27;;;;;;;11.07;5.70;;;16.20;80.20;;;;;;4879046;29;20101;-81
2021/09/22 09:55:57;;;;;;;10.88;6.45;;;16.30;79.20;;;;;;4876485;29;20080;-80
2021/09/22 09:58:44;;;;;;;9.82;5.47;;;16.30;79.00;;;;;;4834304;29;20056;-80
2021/09/22 10:01:12;;;;;;;9.65;5.90;;;16.40;78.90;;;;;;4877038;29;20069;-80
2021/09/22 10:03:41;;;;;;;11.32;6.35;;;16.50;78.70;;;;;;4862232;29;20070;-79
2021/09/22 10:06:09;;;;;;;8.30;4.55;;;16.60;78.50;;;;;;4844503;29;20042;-78
2021/09/22 10:08:37;;;;;;;12.60;5.65;;;16.50;78.30;;;;;;4877765;29;20109;-79
2021/09/22 10:11:05;;;;;;;9.52;5.43;;;16.60;78.20;;;;;;4869996;29;20049;-78
2021/09/22 10:13:33;;;;;;;13.38;7.15;;;16.60;78.10;;;;;;4879027;29;20805;-78
2021/09/22 10:16:03;;;;;;;10.80;6.40;;;16.70;78.00;;;;;;4883874;29;20510;-78
2021/09/22 10:18:30;;;;;;;8.35;5.05;;;16.80;77.80;;;;;;4880492;29;20569;-78
2021/09/22 10:20:57;;;;;;;9.75;5.00;;;16.80;77.80;;;;;;4864268;29;20047;-77
2021/09/22 10:23:24;;;;;;;10.43;6.10;;;16.80;77.60;;;;;;4860023;29;20044;-77
2021/09/22 10:25:52;;;;;;;12.82;7.68;;;16.90;77.30;;;;;;4876425;29;20120;-78
2021/09/22 10:28:38;;;;;;;12.23;7.13;;;16.90;76.80;;;;;;4859804;29;20084;-77
2021/09/22 10:31:21;;;;;;;12.85;7.15;;;17.00;76.50;;;;;;4874560;29;20464;-77
2021/09/22 10:33:48;;;;;;;9.68;5.50;;;17.10;76.50;;;;;;4875357;29;20029;-78
2021/09/22 10:36:18;;;;;;;11.93;7.38;;;17.10;76.40;;;;;;4859732;29;20100;-78
2021/09/22 10:38:47;;;;;;;11.93;8.05;;;17.10;76.10;;;;;;4874954;29;20101;-78
2021/09/22 10:41:30;;;;;;;14.77;8.63;;;17.30;75.70;;;;;;4876127;29;20120;-78
2021/09/22 10:43:58;;;;;;;13.60;8.32;;;17.30;75.30;;;;;;4874849;29;20064;-78
2021/09/22 10:46:29;;;;;;;11.98;7.85;;;17.30;75.20;;;;;;4843778;29;20091;-77
2021/09/22 10:49:01;;;;;;;12.15;6.90;;;17.40;75.10;;;;;;4872848;29;20053;-77
2021/09/22 10:51:29;;;;;;;13.23;7.78;;;17.40;75.20;;;;;;4876860;29;20123;-77
2021/09/22 10:54:15;;;;;;;11.77;6.57;;;17.40;75.10;;;;;;4854204;29;20053;-76
2021/09/22 10:56:58;;;;;;;10.48;6.68;;;17.50;75.10;;;;;;4856992;29;21099;-78
2021/09/22 10:59:38;;;;;;;8.85;5.32;;;17.50;75.10;;;;;;4878143;29;20048;-78
2021/09/22 11:02:08;;;;;;;9.82;6.03;;;17.60;75.10;;;;;;4878926;29;20033;-83
2021/09/22 11:05:00;;;;;;;10.18;6.18;;;17.50;75.10;;;;;;4857275;29;20081;-82
2021/09/22 11:08:07;;;;;;;8.65;4.72;;;17.70;75.10;;;;;;4850858;29;20078;-83
2021/09/22 11:10:50;;;;;;;9.52;5.70;;;17.60;75.00;;;;;;4778303;29;20496;-77
2021/09/22 11:13:23;;;;;;;11.60;6.68;;;17.70;74.90;;;;;;4787903;29;20058;-76
2021/09/22 11:15:54;;;;;;;13.48;7.75;;;17.70;74.70;;;;;;4848316;29;20093;-77
2021/09/22 11:18:23;;;;;;;11.73;6.93;;;17.80;74.40;;;;;;4879073;29;20088;-77
2021/09/22 11:20:54;;;;;;;8.82;5.90;;;17.90;74.20;;;;;;4881305;29;20041;-76
2021/09/22 11:23:23;;;;;;;9.43;6.28;;;18.00;73.90;;;;;;4864850;29;20093;-77
2021/09/22 11:25:50;;;;;;;11.05;5.82;;;18.00;73.50;;;;;;4864329;29;20117;-78
2021/09/22 11:28:17;;;;;;;7.47;4.22;;;18.10;74.00;;;;;;4846889;29;20080;-77
2021/09/22 11:30:52;;;;;;;9.32;4.55;;;18.10;73.60;;;;;;4850030;29;20092;-77
2021/09/22 11:33:20;;;;;;;6.97;4.10;;;18.10;73.80;;;;;;4882347;29;20059;-77
2021/09/22 11:35:48;;;;;;;10.50;5.93;;;18.10;73.70;;;;;;4865439;29;20068;-77
2021/09/22 11:38:15;;;;;;;9.73;5.65;;;18.20;74.10;;;;;;4865374;29;20041;-77
2021/09/22 11:40:43;;;;;;;8.88;5.72;;;18.30;73.20;;;;;;4864792;29;20053;-76
2021/09/22 11:43:18;;;;;;;8.45;5.22;;;18.30;73.00;;;;;;4879158;29;20045;-77
2021/09/22 11:45:49;;;;;;;10.52;6.13;;;18.40;72.70;;;;;;4865157;29;20127;-80
2021/09/22 11:48:25;;;;;;;9.50;5.57;;;18.40;72.70;;;;;;4874351;29;20484;-80
2021/09/22 11:50:53;;;;;;;12.80;7.63;;;18.40;72.70;;;;;;4864926;29;20049;-80
2021/09/22 11:53:23;;;;;;;12.80;8.02;;;18.40;72.30;;;;;;4881358;29;20080;-81
2021/09/22 11:55:50;;;;;;;9.82;5.70;;;18.50;72.10;;;;;;4868218;29;20459;-80
2021/09/22 11:58:20;;;;;;;10.10;5.63;;;18.60;72.20;;;;;;4864754;29;20041;-79
2021/09/22 12:00:55;;;;;;;10.23;5.90;;;18.60;72.00;;;;;;4864095;29;20131;-78
2021/09/22 12:03:25;;;;;;;7.25;4.90;;;18.60;71.80;;;;;;4863170;29;20053;-80
2021/09/22 12:06:17;;;;;;;9.68;5.50;;;18.60;71.90;;;;;;4872261;29;20113;-79
2021/09/22 12:08:47;;;;;;;7.82;4.35;;;18.70;71.60;;;;;;4853399;29;20068;-80
2021/09/22 12:11:18;;;;;;;7.90;4.35;;;18.70;72.40;;;;;;4849463;29;20053;-79
2021/09/22 12:13:48;;;;;;;8.48;5.28;;;18.70;71.80;;;;;;4863022;29;20045;-77
2021/09/22 12:16:23;;;;;;;8.73;5.03;;;18.70;71.50;;;;;;4879213;29;20041;-83
2021/09/22 12:18:58;;;;;;;6.20;3.58;;;18.70;71.20;;;;;;4881356;29;20097;-79
2021/09/22 12:21:30;;;;;;;5.43;2.88;;;18.70;71.30;;;;;;4879900;29;20049;-81
2021/09/22 12:24:04;;;;;;;7.68;2.85;;;18.70;71.60;;;;;;4881610;29;20060;-81
2021/09/22 12:26:32;;;;;;;6.50;2.88;;;18.70;71.70;;;;;;4849241;29;20053;-83
2021/09/22 12:29:12;;;;;;;8.32;3.85;;;18.70;71.60;;;;;;4887447;29;20049;-79
2021/09/22 12:31:42;;;;;;;7.22;3.50;;;18.70;71.30;;;;;;4886861;29;20528;-80
2021/09/22 12:34:19;;;;;;;6.80;3.28;;;18.80;71.40;;;;;;4880709;29;20049;-79
2021/09/22 12:36:47;;;;;;;7.63;3.20;;;18.80;71.20;;;;;;4881012;29;20052;-80
2021/09/22 12:39:16;;;;;;;5.10;2.65;;;18.80;71.10;;;;;;4846997;29;20044;-82
2021/09/22 12:42:04;;;;;;;8.15;4.60;;;18.90;71.10;;;;;;4852641;29;20505;-79
2021/09/22 12:44:54;;;;;;;6.55;3.45;;;18.90;70.60;;;;;;4879298;29;20451;-86
2021/09/22 12:47:22;;;;;;;5.60;3.35;;;19.00;70.60;;;;;;4861406;29;20060;-83
2021/09/22 12:50:15;;;;;;;6.03;3.75;;;19.00;70.50;;;;;;4860376;29;20644;-82
2021/09/22 12:52:44;;;;;;;7.10;4.25;;;19.10;70.00;;;;;;4862378;29;20057;-87
2021/09/22 12:55:18;;;;;;;8.38;3.65;;;19.10;70.10;;;;;;4865257;29;20049;-87
2021/09/22 12:58:12;;;;;;;5.25;2.78;;;19.20;69.90;;;;;;4866939;29;20057;-96
2021/09/22 13:00:53;;;;;;;6.30;3.78;;;19.20;69.90;;;;;;4867433;29;20473;-91
2021/09/22 13:03:25;;;;;;;6.28;3.08;;;19.20;69.70;;;;;;4867359;29;20049;-82
2021/09/22 13:06:10;;;;;;;4.50;2.08;;;19.20;69.90;;;;;;4863765;29;20049;-80
2021/09/22 13:09:06;;;;;;;5.90;2.03;;;19.20;69.90;;;;;;4860927;29;20041;-80
2021/09/22 13:11:39;;;;;;;5.63;3.20;;;19.30;69.70;;;;;;4847269;29;20053;-76
2021/09/22 13:14:10;;;;;;;;;;;19.30;69.70;;;;;;4878439;29;20108;-80